Map

Track Data

SID SEASON NUMBER BASIN SUBBASIN NAME ISO_TIME NATURE LAT LON WMO_WIND WMO_PRES WMO_AGENCY TRACK_TYPE DIST2LAND LANDFALL IFLAG USA_AGENCY USA_ATCF_ID USA_LAT USA_LON USA_RECORD USA_STATUS USA_WIND USA_PRES USA_SSHS USA_R34_NE USA_R34_SE USA_R34_SW USA_R34_NW USA_R50_NE USA_R50_SE USA_R50_SW USA_R50_NW USA_R64_NE USA_R64_SE USA_R64_SW USA_R64_NW USA_POCI USA_ROCI USA_RMW USA_EYE TOKYO_LAT TOKYO_LON TOKYO_GRADE TOKYO_WIND TOKYO_PRES TOKYO_R50_DIR TOKYO_R50_LONG TOKYO_R50_SHORT TOKYO_R30_DIR TOKYO_R30_LONG TOKYO_R30_SHORT TOKYO_LAND CMA_LAT CMA_LON CMA_CAT CMA_WIND CMA_PRES HKO_LAT HKO_LON HKO_CAT HKO_WIND HKO_PRES NEWDELHI_LAT NEWDELHI_LON NEWDELHI_GRADE NEWDELHI_WIND NEWDELHI_PRES NEWDELHI_CI NEWDELHI_DP NEWDELHI_POCI REUNION_LAT REUNION_LON REUNION_TYPE REUNION_WIND REUNION_PRES REUNION_TNUM REUNION_CI REUNION_RMW REUNION_R34_NE REUNION_R34_SE REUNION_R34_SW REUNION_R34_NW REUNION_R50_NE REUNION_R50_SE REUNION_R50_SW REUNION_R50_NW REUNION_R64_NE REUNION_R64_SE REUNION_R64_SW REUNION_R64_NW BOM_LAT BOM_LON BOM_TYPE BOM_WIND BOM_PRES BOM_TNUM BOM_CI BOM_RMW BOM_R34_NE BOM_R34_SE BOM_R34_SW BOM_R34_NW BOM_R50_NE BOM_R50_SE BOM_R50_SW BOM_R50_NW BOM_R64_NE BOM_R64_SE BOM_R64_SW BOM_R64_NW BOM_ROCI BOM_POCI BOM_EYE BOM_POS_METHOD BOM_PRES_METHOD NADI_LAT NADI_LON NADI_CAT NADI_WIND NADI_PRES WELLINGTON_LAT WELLINGTON_LON WELLINGTON_WIND WELLINGTON_PRES DS824_LAT DS824_LON DS824_STAGE DS824_WIND DS824_PRES TD9636_LAT TD9636_LON TD9636_STAGE TD9636_WIND TD9636_PRES TD9635_LAT TD9635_LON TD9635_WIND TD9635_PRES TD9635_ROCI NEUMANN_LAT NEUMANN_LON NEUMANN_CLASS NEUMANN_WIND NEUMANN_PRES MLC_LAT MLC_LON MLC_CLASS MLC_WIND MLC_PRES USA_GUST BOM_GUST BOM_GUST_PER REUNION_GUST REUNION_GUST_PER USA_SEAHGT USA_SEARAD_NE USA_SEARAD_SE USA_SEARAD_SW USA_SEARAD_NW STORM_SPEED STORM_DIR
1936201N15115 1936 27 WP MM NOT_NAMED 1936-07-19 10:00:00 NR 15.1000 115.200 main 492 492 __________O___ -1 15.1000 115.200 4 9 283
1936201N15115 1936 27 WP MM NOT_NAMED 1936-07-19 12:00:00 NR 15.1662 114.912 main 521 521 __________P___ -1 15.1662 114.912 4 8 284
1936201N15115 1936 27 WP MM NOT_NAMED 1936-07-19 15:00:00 NR 15.2654 114.488 main 562 539 __________P___ -1 15.2654 114.488 4 8 284
1936201N15115 1936 27 WP MM NOT_NAMED 1936-07-19 18:00:00 NR 15.3650 114.084 main 539 501 __________P___ -1 15.3650 114.084 4 8 285
1936201N15115 1936 27 WP MM NOT_NAMED 1936-07-19 21:00:00 NR 15.4659 113.714 main 501 491 __________P___ -1 15.4659 113.714 4 7 286
1936201N15115 1936 27 WP MM NOT_NAMED 1936-07-19 22:00:00 NR 15.5000 113.600 main 491 471 __________O___ -1 15.5000 113.600 4 7 288
1936201N15115 1936 27 WP MM NOT_NAMED 1936-07-20 00:00:00 NR 15.5694 113.387 main 471 441 __________P___ -1 15.5694 113.387 4 6 290
1936201N15115 1936 27 WP MM NOT_NAMED 1936-07-20 03:00:00 NR 15.6798 113.094 main 441 412 __________P___ -1 15.6798 113.094 4 6 293
1936201N15115 1936 27 WP MM NOT_NAMED 1936-07-20 06:00:00 NR 15.8036 112.809 main 412 384 __________P___ -1 15.8036 112.809 4 6 295
1936201N15115 1936 27 WP MM NOT_NAMED 1936-07-20 09:00:00 NR 15.9468 112.508 main 384 369 __________P___ -1 15.9468 112.508 4 7 296
1936201N15115 1936 27 WP MM NOT_NAMED 1936-07-20 10:00:00 NR 16.0000 112.400 main 369 347 __________O___ -1 16.0000 112.400 4 7 298
1936201N15115 1936 27 WP MM NOT_NAMED 1936-07-20 12:00:00 NR 16.1160 112.172 main 347 302 __________P___ -1 16.1160 112.172 4 8 298
1936201N15115 1936 27 WP MM NOT_NAMED 1936-07-20 15:00:00 NR 16.3089 111.805 main 302 259 __________P___ -1 16.3089 111.805 4 8 298
1936201N15115 1936 27 WP MM NOT_NAMED 1936-07-20 18:00:00 NR 16.5165 111.402 main 259 217 __________P___ -1 16.5165 111.402 4 9 297
1936201N15115 1936 27 WP MM NOT_NAMED 1936-07-20 21:00:00 NR 16.7294 110.958 main 217 195 __________P___ -1 16.7294 110.958 4 10 296
1936201N15115 1936 27 WP MM NOT_NAMED 1936-07-20 22:00:00 NR 16.8000 110.800 main 195 158 __________O___ -1 16.8000 110.800 4 10 296
1936201N15115 1936 27 WP MM NOT_NAMED 1936-07-21 00:00:00 NR 16.9515 110.478 main 158 116 __________P___ -1 16.9515 110.478 4 11 295
1936201N15115 1936 27 WP MM NOT_NAMED 1936-07-21 03:00:00 NR 17.1792 109.958 main 116 89 __________P___ -1 17.1792 109.958 4 11 293
1936201N15115 1936 27 WP MM NOT_NAMED 1936-07-21 06:00:00 NR 17.3881 109.398 main 90 84 __________P___ -1 17.3881 109.398 4 12 289
1936201N15115 1936 27 WP MM NOT_NAMED 1936-07-21 09:00:00 NR 17.5566 108.804 main 91 91 __________P___ -1 17.5566 108.804 4 12 286
1936201N15115 1936 27 WP MM NOT_NAMED 1936-07-21 10:00:00 NR 17.6000 108.600 main 99 98 __________O___ -1 17.6000 108.600 4 12 280
1936201N15115 1936 27 WP MM NOT_NAMED 1936-07-21 12:00:00 NR 17.6648 108.183 main 103 79 __________P___ -1 17.6648 108.183 4 12 277
1936201N15115 1936 27 WP MM NOT_NAMED 1936-07-21 15:00:00 NR 17.7151 107.542 main 79 38 __________P___ -1 17.7151 107.542 4 12 273
1936201N15115 1936 27 WP MM NOT_NAMED 1936-07-21 18:00:00 NR 17.7239 106.886 main 38 0 __________P___ -1 17.7239 106.886 4 13 270
1936201N15115 1936 27 WP MM NOT_NAMED 1936-07-21 21:00:00 NR 17.7079 106.222 main 0 0 __________P___ -1 17.7079 106.222 4 13 268
1936201N15115 1936 27 WP MM NOT_NAMED 1936-07-21 22:00:00 NR 17.7000 106.000 main 0 __________O___ -1 17.7000 106.000 7 13 268

Digital Typhoon Data and Search

About IBTrACS Database

This database is a web-friendly format of International Best Track Archive for Climate Stewardship (IBTrACS), a global best track data archive curated by NOAA dating back to 1842.

Updated: 2021-10-08